sensor_id;sensor_type;location;lat;lon;timestamp;pressure;altitude;pressure_sealevel;temperature;humidity
13027;BME280;6580;42.680;23.324;2022-12-18T00:00:59;96015.41;;;9.22;100.00
13027;BME280;6580;42.680;23.324;2022-12-18T00:03:27;96021.63;;;8.92;100.00
13027;BME280;6580;42.680;23.324;2022-12-18T00:05:55;96032.13;;;9.13;100.00
13027;BME280;6580;42.680;23.324;2022-12-18T00:08:22;96020.31;;;8.86;100.00
13027;BME280;6580;42.680;23.324;2022-12-18T00:10:52;96029.59;;;8.92;100.00
13027;BME280;6580;42.680;23.324;2022-12-18T00:13:19;96043.56;;;8.94;100.00
13027;BME280;6580;42.680;23.324;2022-12-18T00:15:46;96037.38;;;8.84;100.00
13027;BME280;6580;42.680;23.324;2022-12-18T00:18:13;96032.63;;;8.87;100.00
13027;BME280;6580;42.680;23.324;2022-12-18T00:20:41;96053.13;;;8.96;100.00
13027;BME280;6580;42.680;23.324;2022-12-18T00:23:08;96032.69;;;8.76;100.00
13027;BME280;6580;42.680;23.324;2022-12-18T00:25:36;96051.84;;;8.80;100.00
13027;BME280;6580;42.680;23.324;2022-12-18T00:28:06;96055.47;;;8.79;100.00
13027;BME280;6580;42.680;23.324;2022-12-18T00:30:33;96062.31;;;8.92;100.00
13027;BME280;6580;42.680;23.324;2022-12-18T00:33:00;96057.41;;;8.77;100.00
13027;BME280;6580;42.680;23.324;2022-12-18T00:35:27;96059.28;;;8.65;100.00
13027;BME280;6580;42.680;23.324;2022-12-18T00:37:56;96059.78;;;8.59;100.00
13027;BME280;6580;42.680;23.324;2022-12-18T00:40:23;96063.38;;;8.69;100.00
13027;BME280;6580;42.680;23.324;2022-12-18T00:42:49;96071.06;;;8.41;100.00
13027;BME280;6580;42.680;23.324;2022-12-18T00:45:21;96069.59;;;8.48;100.00
13027;BME280;6580;42.680;23.324;2022-12-18T00:47:48;96079.53;;;8.24;100.00
13027;BME280;6580;42.680;23.324;2022-12-18T00:50:16;96079.78;;;8.21;100.00
13027;BME280;6580;42.680;23.324;2022-12-18T00:52:43;96080.75;;;8.20;100.00
13027;BME280;6580;42.680;23.324;2022-12-18T00:55:12;96080.09;;;8.49;100.00
13027;BME280;6580;42.680;23.324;2022-12-18T00:57:39;96075.31;;;8.32;100.00
13027;BME280;6580;42.680;23.324;2022-12-18T01:00:08;96081.44;;;8.44;100.00
13027;BME280;6580;42.680;23.324;2022-12-18T01:02:35;96087.13;;;8.28;100.00
13027;BME280;6580;42.680;23.324;2022-12-18T01:05:15;96082.81;;;8.16;100.00
13027;BME280;6580;42.680;23.324;2022-12-18T01:07:42;96091.69;;;8.15;100.00
13027;BME280;6580;42.680;23.324;2022-12-18T01:10:13;96094.88;;;8.09;100.00
13027;BME280;6580;42.680;23.324;2022-12-18T01:12:40;96097.00;;;7.94;100.00
13027;BME280;6580;42.680;23.324;2022-12-18T01:15:09;96108.97;;;7.88;100.00
13027;BME280;6580;42.680;23.324;2022-12-18T01:17:36;96109.94;;;7.98;100.00
13027;BME280;6580;42.680;23.324;2022-12-18T01:20:04;96104.59;;;7.65;100.00
13027;BME280;6580;42.680;23.324;2022-12-18T01:22:32;96107.97;;;7.67;100.00
13027;BME280;6580;42.680;23.324;2022-12-18T01:25:01;96108.97;;;7.77;100.00
13027;BME280;6580;42.680;23.324;2022-12-18T01:27:30;96114.50;;;7.85;100.00
13027;BME280;6580;42.680;23.324;2022-12-18T01:29:58;96101.13;;;7.65;100.00
13027;BME280;6580;42.680;23.324;2022-12-18T01:32:25;96115.34;;;7.64;100.00
13027;BME280;6580;42.680;23.324;2022-12-18T01:34:52;96116.56;;;7.71;100.00
13027;BME280;6580;42.680;23.324;2022-12-18T01:37:19;96110.16;;;7.62;100.00
13027;BME280;6580;42.680;23.324;2022-12-18T01:39:50;96114.84;;;7.59;100.00
13027;BME280;6580;42.680;23.324;2022-12-18T01:42:19;96137.41;;;7.64;100.00
13027;BME280;6580;42.680;23.324;2022-12-18T01:45:06;96132.28;;;7.50;100.00
13027;BME280;6580;42.680;23.324;2022-12-18T01:47:38;96131.59;;;7.70;100.00
13027;BME280;6580;42.680;23.324;2022-12-18T01:50:09;96130.31;;;7.87;100.00
13027;BME280;6580;42.680;23.324;2022-12-18T01:52:40;96132.47;;;7.82;100.00
13027;BME280;6580;42.680;23.324;2022-12-18T01:55:09;96138.00;;;7.22;100.00
13027;BME280;6580;42.680;23.324;2022-12-18T01:57:37;96128.25;;;7.23;100.00
13027;BME280;6580;42.680;23.324;2022-12-18T02:00:10;96132.38;;;7.27;100.00
13027;BME280;6580;42.680;23.324;2022-12-18T02:02:37;96130.53;;;7.16;100.00
13027;BME280;6580;42.680;23.324;2022-12-18T02:05:06;96133.47;;;7.35;100.00
13027;BME280;6580;42.680;23.324;2022-12-18T02:07:40;96130.59;;;7.38;100.00
13027;BME280;6580;42.680;23.324;2022-12-18T02:10:15;96148.84;;;7.30;100.00
13027;BME280;6580;42.680;23.324;2022-12-18T02:12:48;96147.97;;;7.53;100.00
13027;BME280;6580;42.680;23.324;2022-12-18T02:15:24;96140.72;;;7.44;100.00
13027;BME280;6580;42.680;23.324;2022-12-18T02:17:55;96149.63;;;7.43;100.00
13027;BME280;6580;42.680;23.324;2022-12-18T02:20:26;96134.28;;;7.25;100.00
13027;BME280;6580;42.680;23.324;2022-12-18T02:23:05;96146.19;;;7.19;100.00
13027;BME280;6580;42.680;23.324;2022-12-18T02:26:06;96165.25;;;7.24;100.00
13027;BME280;6580;42.680;23.324;2022-12-18T02:28:40;96159.09;;;7.24;100.00
13027;BME280;6580;42.680;23.324;2022-12-18T02:31:11;96165.78;;;7.40;100.00
13027;BME280;6580;42.680;23.324;2022-12-18T02:33:43;96162.53;;;7.13;100.00
13027;BME280;6580;42.680;23.324;2022-12-18T02:36:12;96157.47;;;7.45;100.00
13027;BME280;6580;42.680;23.324;2022-12-18T02:38:42;96165.84;;;7.28;100.00
13027;BME280;6580;42.680;23.324;2022-12-18T02:41:13;96160.69;;;7.03;100.00
13027;BME280;6580;42.680;23.324;2022-12-18T02:43:46;96174.38;;;7.20;100.00
13027;BME280;6580;42.680;23.324;2022-12-18T02:46:27;96172.66;;;7.08;100.00
13027;BME280;6580;42.680;23.324;2022-12-18T02:49:06;96172.81;;;7.18;100.00
13027;BME280;6580;42.680;23.324;2022-12-18T02:51:47;96169.13;;;7.08;100.00
13027;BME280;6580;42.680;23.324;2022-12-18T02:54:23;96171.69;;;7.09;100.00
13027;BME280;6580;42.680;23.324;2022-12-18T02:57:05;96174.94;;;7.13;100.00
13027;BME280;6580;42.680;23.324;2022-12-18T02:59:49;96171.19;;;7.04;100.00
13027;BME280;6580;42.680;23.324;2022-12-18T03:02:22;96174.81;;;7.14;100.00
13027;BME280;6580;42.680;23.324;2022-12-18T03:04:58;96174.59;;;7.17;100.00
13027;BME280;6580;42.680;23.324;2022-12-18T03:07:37;96181.59;;;7.18;100.00
13027;BME280;6580;42.680;23.324;2022-12-18T03:10:12;96176.31;;;6.72;100.00
13027;BME280;6580;42.680;23.324;2022-12-18T03:12:43;96187.41;;;7.00;100.00
13027;BME280;6580;42.680;23.324;2022-12-18T03:15:14;96188.69;;;7.18;100.00
13027;BME280;6580;42.680;23.324;2022-12-18T03:17:46;96192.53;;;7.14;100.00
13027;BME280;6580;42.680;23.324;2022-12-18T03:20:21;96196.00;;;7.14;100.00
13027;BME280;6580;42.680;23.324;2022-12-18T03:22:53;96201.09;;;7.17;100.00
13027;BME280;6580;42.680;23.324;2022-12-18T03:25:22;96204.59;;;7.18;100.00
13027;BME280;6580;42.680;23.324;2022-12-18T03:27:56;96198.41;;;7.06;100.00
13027;BME280;6580;42.680;23.324;2022-12-18T03:30:28;96180.75;;;6.95;100.00
13027;BME280;6580;42.680;23.324;2022-12-18T03:33:01;96208.25;;;7.04;100.00
13027;BME280;6580;42.680;23.324;2022-12-18T03:35:34;96210.44;;;7.10;100.00
13027;BME280;6580;42.680;23.324;2022-12-18T03:38:04;96211.66;;;7.06;100.00
13027;BME280;6580;42.680;23.324;2022-12-18T03:40:35;96219.47;;;7.08;100.00
13027;BME280;6580;42.680;23.324;2022-12-18T03:43:11;96222.63;;;6.90;100.00
13027;BME280;6580;42.680;23.324;2022-12-18T03:45:48;96223.34;;;6.92;100.00
13027;BME280;6580;42.680;23.324;2022-12-18T03:48:22;96224.53;;;6.88;100.00
13027;BME280;6580;42.680;23.324;2022-12-18T03:50:56;96237.56;;;6.91;100.00
13027;BME280;6580;42.680;23.324;2022-12-18T03:53:32;96234.31;;;6.75;100.00
13027;BME280;6580;42.680;23.324;2022-12-18T03:56:02;96239.91;;;6.83;100.00
13027;BME280;6580;42.680;23.324;2022-12-18T03:58:33;96238.88;;;6.73;100.00
13027;BME280;6580;42.680;23.324;2022-12-18T04:01:05;96245.25;;;6.94;100.00
13027;BME280;6580;42.680;23.324;2022-12-18T04:03:33;96253.94;;;6.96;100.00
13027;BME280;6580;42.680;23.324;2022-12-18T04:06:05;96248.41;;;6.99;100.00
13027;BME280;6580;42.680;23.324;2022-12-18T04:08:35;96242.50;;;6.95;100.00
13027;BME280;6580;42.680;23.324;2022-12-18T04:11:02;96257.34;;;6.85;100.00
13027;BME280;6580;42.680;23.324;2022-12-18T04:13:35;96257.22;;;6.99;100.00
13027;BME280;6580;42.680;23.324;2022-12-18T04:16:03;96257.47;;;6.84;100.00
13027;BME280;6580;42.680;23.324;2022-12-18T04:18:31;96273.22;;;6.98;100.00
13027;BME280;6580;42.680;23.324;2022-12-18T04:20:57;96276.66;;;7.10;100.00
13027;BME280;6580;42.680;23.324;2022-12-18T04:23:24;96279.69;;;6.94;100.00
13027;BME280;6580;42.680;23.324;2022-12-18T04:25:52;96274.09;;;6.86;100.00
13027;BME280;6580;42.680;23.324;2022-12-18T04:28:19;96279.75;;;7.04;100.00
13027;BME280;6580;42.680;23.324;2022-12-18T04:30:48;96280.94;;;7.01;100.00
13027;BME280;6580;42.680;23.324;2022-12-18T04:33:16;96280.63;;;6.93;100.00
13027;BME280;6580;42.680;23.324;2022-12-18T04:35:43;96282.31;;;6.94;100.00
13027;BME280;6580;42.680;23.324;2022-12-18T04:38:10;96288.53;;;7.05;100.00
13027;BME280;6580;42.680;23.324;2022-12-18T04:40:37;96285.94;;;6.93;100.00
13027;BME280;6580;42.680;23.324;2022-12-18T04:43:04;96299.41;;;6.90;100.00
13027;BME280;6580;42.680;23.324;2022-12-18T04:45:32;96296.75;;;6.90;100.00
13027;BME280;6580;42.680;23.324;2022-12-18T04:48:04;96300.03;;;6.93;100.00
13027;BME280;6580;42.680;23.324;2022-12-18T04:50:31;96300.28;;;6.78;100.00
13027;BME280;6580;42.680;23.324;2022-12-18T04:52:58;96308.19;;;6.90;100.00
13027;BME280;6580;42.680;23.324;2022-12-18T04:55:27;96317.09;;;6.77;100.00
13027;BME280;6580;42.680;23.324;2022-12-18T04:57:55;96314.16;;;6.81;100.00
13027;BME280;6580;42.680;23.324;2022-12-18T05:00:24;96320.78;;;6.99;100.00
13027;BME280;6580;42.680;23.324;2022-12-18T05:02:53;96326.94;;;6.87;100.00
13027;BME280;6580;42.680;23.324;2022-12-18T05:05:22;96328.00;;;6.97;100.00
13027;BME280;6580;42.680;23.324;2022-12-18T05:07:51;96329.78;;;6.84;100.00
13027;BME280;6580;42.680;23.324;2022-12-18T05:10:19;96326.47;;;6.70;100.00
13027;BME280;6580;42.680;23.324;2022-12-18T05:12:46;96333.44;;;6.58;100.00
13027;BME280;6580;42.680;23.324;2022-12-18T05:15:28;96343.19;;;6.33;100.00
13027;BME280;6580;42.680;23.324;2022-12-18T05:17:55;96339.16;;;6.40;100.00
13027;BME280;6580;42.680;23.324;2022-12-18T05:20:24;96349.44;;;6.19;100.00
13027;BME280;6580;42.680;23.324;2022-12-18T05:22:51;96342.03;;;6.24;100.00
13027;BME280;6580;42.680;23.324;2022-12-18T05:25:19;96348.34;;;6.22;100.00
13027;BME280;6580;42.680;23.324;2022-12-18T05:27:47;96360.31;;;6.40;100.00
13027;BME280;6580;42.680;23.324;2022-12-18T05:30:15;96347.41;;;6.23;100.00
13027;BME280;6580;42.680;23.324;2022-12-18T05:32:44;96365.19;;;6.08;100.00
13027;BME280;6580;42.680;23.324;2022-12-18T05:35:11;96358.28;;;6.06;100.00
13027;BME280;6580;42.680;23.324;2022-12-18T05:37:39;96376.44;;;6.37;100.00
13027;BME280;6580;42.680;23.324;2022-12-18T05:40:07;96377.56;;;6.20;100.00
13027;BME280;6580;42.680;23.324;2022-12-18T05:42:34;96379.69;;;6.28;100.00
13027;BME280;6580;42.680;23.324;2022-12-18T05:45:00;96384.03;;;6.29;100.00
13027;BME280;6580;42.680;23.324;2022-12-18T05:47:27;96383.69;;;6.21;100.00
13027;BME280;6580;42.680;23.324;2022-12-18T05:49:55;96390.28;;;6.28;100.00
13027;BME280;6580;42.680;23.324;2022-12-18T05:52:22;96386.78;;;6.15;100.00
13027;BME280;6580;42.680;23.324;2022-12-18T05:54:52;96391.00;;;6.17;100.00
13027;BME280;6580;42.680;23.324;2022-12-18T05:57:19;96393.13;;;6.25;100.00
13027;BME280;6580;42.680;23.324;2022-12-18T05:59:47;96389.22;;;6.43;100.00
13027;BME280;6580;42.680;23.324;2022-12-18T06:02:15;96401.28;;;6.34;100.00
13027;BME280;6580;42.680;23.324;2022-12-18T06:04:43;96410.16;;;6.21;100.00
13027;BME280;6580;42.680;23.324;2022-12-18T06:07:10;96405.03;;;5.93;100.00
13027;BME280;6580;42.680;23.324;2022-12-18T06:09:38;96413.50;;;5.98;100.00
13027;BME280;6580;42.680;23.324;2022-12-18T06:12:09;96412.13;;;6.05;100.00
13027;BME280;6580;42.680;23.324;2022-12-18T06:14:36;96416.31;;;6.21;100.00
13027;BME280;6580;42.680;23.324;2022-12-18T06:17:03;96411.84;;;6.22;100.00
13027;BME280;6580;42.680;23.324;2022-12-18T06:19:31;96419.25;;;6.29;100.00
13027;BME280;6580;42.680;23.324;2022-12-18T06:21:58;96420.31;;;6.27;100.00
13027;BME280;6580;42.680;23.324;2022-12-18T06:24:27;96402.44;;;6.30;100.00
13027;BME280;6580;42.680;23.324;2022-12-18T06:26:55;96423.31;;;6.35;100.00
13027;BME280;6580;42.680;23.324;2022-12-18T06:29:25;96427.22;;;6.42;100.00
13027;BME280;6580;42.680;23.324;2022-12-18T06:31:52;96418.56;;;6.52;100.00
13027;BME280;6580;42.680;23.324;2022-12-18T06:34:21;96425.97;;;6.35;100.00
13027;BME280;6580;42.680;23.324;2022-12-18T06:36:48;96432.13;;;6.60;100.00
13027;BME280;6580;42.680;23.324;2022-12-18T06:39:15;96438.59;;;6.69;99.21
13027;BME280;6580;42.680;23.324;2022-12-18T06:41:42;96440.56;;;6.65;99.11
13027;BME280;6580;42.680;23.324;2022-12-18T06:44:09;96442.78;;;6.59;100.00
13027;BME280;6580;42.680;23.324;2022-12-18T06:46:39;96447.06;;;6.61;98.42
13027;BME280;6580;42.680;23.324;2022-12-18T06:49:06;96450.31;;;6.65;98.43
13027;BME280;6580;42.680;23.324;2022-12-18T06:51:36;96449.59;;;6.63;97.90
13027;BME280;6580;42.680;23.324;2022-12-18T06:54:06;96459.56;;;6.72;97.78
13027;BME280;6580;42.680;23.324;2022-12-18T06:56:33;96463.66;;;6.76;94.85
13027;BME280;6580;42.680;23.324;2022-12-18T06:59:00;96459.56;;;6.72;94.12
13027;BME280;6580;42.680;23.324;2022-12-18T07:01:27;96463.56;;;6.65;95.52
13027;BME280;6580;42.680;23.324;2022-12-18T07:03:56;96460.06;;;6.52;96.90
13027;BME280;6580;42.680;23.324;2022-12-18T07:06:25;96449.16;;;6.56;95.60
13027;BME280;6580;42.680;23.324;2022-12-18T07:08:53;96466.44;;;6.87;94.57
13027;BME280;6580;42.680;23.324;2022-12-18T07:11:20;96475.13;;;6.89;92.42
13027;BME280;6580;42.680;23.324;2022-12-18T07:13:47;96475.41;;;6.84;92.20
13027;BME280;6580;42.680;23.324;2022-12-18T07:16:15;96461.88;;;6.64;92.91
13027;BME280;6580;42.680;23.324;2022-12-18T07:18:42;96474.03;;;6.79;93.82
13027;BME280;6580;42.680;23.324;2022-12-18T07:21:12;96473.09;;;6.55;94.48
13027;BME280;6580;42.680;23.324;2022-12-18T07:23:39;96479.34;;;6.54;93.90
13027;BME280;6580;42.680;23.324;2022-12-18T07:26:09;96485.78;;;6.75;94.64
13027;BME280;6580;42.680;23.324;2022-12-18T07:28:37;96480.81;;;6.45;95.11
13027;BME280;6580;42.680;23.324;2022-12-18T07:31:05;96484.50;;;6.55;94.54
13027;BME280;6580;42.680;23.324;2022-12-18T07:33:33;96459.00;;;6.15;95.96
13027;BME280;6580;42.680;23.324;2022-12-18T07:36:00;96488.75;;;6.19;95.98
13027;BME280;6580;42.680;23.324;2022-12-18T07:38:30;96494.22;;;6.42;96.38
13027;BME280;6580;42.680;23.324;2022-12-18T07:41:00;96500.06;;;6.60;95.98
13027;BME280;6580;42.680;23.324;2022-12-18T07:43:28;96498.56;;;6.56;94.25
13027;BME280;6580;42.680;23.324;2022-12-18T07:45:56;96493.84;;;6.61;94.32
13027;BME280;6580;42.680;23.324;2022-12-18T07:48:25;96507.94;;;6.61;94.55
13027;BME280;6580;42.680;23.324;2022-12-18T07:50:52;96506.25;;;6.73;93.56
13027;BME280;6580;42.680;23.324;2022-12-18T07:53:19;96502.91;;;6.57;93.68
13027;BME280;6580;42.680;23.324;2022-12-18T07:55:47;96507.09;;;6.34;96.26
13027;BME280;6580;42.680;23.324;2022-12-18T07:58:14;96505.03;;;6.13;98.04
13027;BME280;6580;42.680;23.324;2022-12-18T08:00:41;96514.97;;;6.48;96.58
13027;BME280;6580;42.680;23.324;2022-12-18T08:03:08;96520.47;;;6.19;97.49
13027;BME280;6580;42.680;23.324;2022-12-18T08:05:35;96518.19;;;6.27;96.89
13027;BME280;6580;42.680;23.324;2022-12-18T08:08:02;96522.06;;;6.48;98.62
13027;BME280;6580;42.680;23.324;2022-12-18T08:10:28;96522.97;;;6.34;96.21
13027;BME280;6580;42.680;23.324;2022-12-18T08:12:57;96537.34;;;6.30;97.58
13027;BME280;6580;42.680;23.324;2022-12-18T08:15:25;96550.56;;;6.57;96.65
13027;BME280;6580;42.680;23.324;2022-12-18T08:17:56;96539.78;;;6.60;96.48
13027;BME280;6580;42.680;23.324;2022-12-18T08:20:23;96544.84;;;6.50;95.41
13027;BME280;6580;42.680;23.324;2022-12-18T08:22:49;96552.31;;;6.44;95.90
13027;BME280;6580;42.680;23.324;2022-12-18T08:25:16;96548.06;;;6.29;94.79
13027;BME280;6580;42.680;23.324;2022-12-18T08:27:43;96556.50;;;6.21;96.10
13027;BME280;6580;42.680;23.324;2022-12-18T08:30:13;96563.31;;;6.38;95.91
13027;BME280;6580;42.680;23.324;2022-12-18T08:32:40;96555.78;;;6.58;94.42
13027;BME280;6580;42.680;23.324;2022-12-18T08:35:08;96565.09;;;6.64;93.48
13027;BME280;6580;42.680;23.324;2022-12-18T08:37:38;96570.78;;;6.58;94.39
13027;BME280;6580;42.680;23.324;2022-12-18T08:40:06;96572.09;;;6.65;92.70
13027;BME280;6580;42.680;23.324;2022-12-18T08:42:33;96565.44;;;6.84;92.14
13027;BME280;6580;42.680;23.324;2022-12-18T08:45:18;96562.22;;;6.54;92.48
13027;BME280;6580;42.680;23.324;2022-12-18T08:47:46;96557.91;;;6.66;92.07
13027;BME280;6580;42.680;23.324;2022-12-18T08:50:13;96572.03;;;6.52;90.99
13027;BME280;6580;42.680;23.324;2022-12-18T08:52:40;96569.72;;;6.48;92.99
13027;BME280;6580;42.680;23.324;2022-12-18T08:55:08;96569.72;;;6.48;92.76
13027;BME280;6580;42.680;23.324;2022-12-18T08:57:36;96581.09;;;6.36;92.17
13027;BME280;6580;42.680;23.324;2022-12-18T09:00:03;96572.47;;;6.59;91.13
13027;BME280;6580;42.680;23.324;2022-12-18T09:02:34;96570.50;;;6.75;89.51
13027;BME280;6580;42.680;23.324;2022-12-18T09:05:02;96578.25;;;6.78;88.15
13027;BME280;6580;42.680;23.324;2022-12-18T09:07:29;96559.63;;;6.92;85.86
13027;BME280;6580;42.680;23.324;2022-12-18T09:09:56;96568.31;;;6.94;86.99
13027;BME280;6580;42.680;23.324;2022-12-18T09:12:23;96561.09;;;6.83;86.23
13027;BME280;6580;42.680;23.324;2022-12-18T09:14:49;96561.31;;;6.93;86.71
13027;BME280;6580;42.680;23.324;2022-12-18T09:17:16;96568.66;;;7.02;85.55
13027;BME280;6580;42.680;23.324;2022-12-18T09:19:45;96567.69;;;6.90;84.35
13027;BME280;6580;42.680;23.324;2022-12-18T09:22:12;96563.94;;;6.68;83.46
13027;BME280;6580;42.680;23.324;2022-12-18T09:24:38;96565.56;;;6.83;83.82
13027;BME280;6580;42.680;23.324;2022-12-18T09:27:05;96563.97;;;6.93;83.45
13027;BME280;6580;42.680;23.324;2022-12-18T09:29:33;96564.53;;;7.10;83.07
13027;BME280;6580;42.680;23.324;2022-12-18T09:32:03;96552.75;;;6.89;82.40
13027;BME280;6580;42.680;23.324;2022-12-18T09:34:30;96568.81;;;6.74;83.40
13027;BME280;6580;42.680;23.324;2022-12-18T09:37:00;96562.91;;;6.83;82.53
13027;BME280;6580;42.680;23.324;2022-12-18T09:39:27;96568.75;;;6.88;81.71
13027;BME280;6580;42.680;23.324;2022-12-18T09:41:57;96571.94;;;6.80;81.81
13027;BME280;6580;42.680;23.324;2022-12-18T09:44:26;96578.72;;;6.97;81.65
13027;BME280;6580;42.680;23.324;2022-12-18T09:47:03;96564.63;;;6.84;79.87
13027;BME280;6580;42.680;23.324;2022-12-18T09:49:36;96568.81;;;6.74;81.56
13027;BME280;6580;42.680;23.324;2022-12-18T09:52:11;96568.97;;;6.85;83.39
13027;BME280;6580;42.680;23.324;2022-12-18T09:54:40;96567.22;;;7.22;81.87
13027;BME280;6580;42.680;23.324;2022-12-18T09:57:13;96563.91;;;7.56;78.89
13027;BME280;6580;42.680;23.324;2022-12-18T09:59:42;96549.59;;;7.46;78.04
13027;BME280;6580;42.680;23.324;2022-12-18T10:02:16;96555.00;;;7.32;77.27
13027;BME280;6580;42.680;23.324;2022-12-18T10:04:43;96560.72;;;7.02;78.98
13027;BME280;6580;42.680;23.324;2022-12-18T10:07:21;96566.47;;;7.20;79.14
13027;BME280;6580;42.680;23.324;2022-12-18T10:09:56;96553.44;;;7.55;79.20
13027;BME280;6580;42.680;23.324;2022-12-18T10:12:34;96560.69;;;7.76;76.40
13027;BME280;6580;42.680;23.324;2022-12-18T10:15:08;96548.34;;;7.39;75.82
13027;BME280;6580;42.680;23.324;2022-12-18T10:17:45;96550.22;;;7.62;75.68
13027;BME280;6580;42.680;23.324;2022-12-18T10:20:20;96563.50;;;7.62;73.10
13027;BME280;6580;42.680;23.324;2022-12-18T10:22:57;96568.13;;;7.59;74.35
13027;BME280;6580;42.680;23.324;2022-12-18T10:25:28;96576.63;;;7.51;73.23
13027;BME280;6580;42.680;23.324;2022-12-18T10:28:10;96567.44;;;7.93;73.78
13027;BME280;6580;42.680;23.324;2022-12-18T10:30:41;96567.50;;;7.68;73.79
13027;BME280;6580;42.680;23.324;2022-12-18T10:33:11;96564.31;;;7.75;74.45
13027;BME280;6580;42.680;23.324;2022-12-18T10:35:40;96565.22;;;7.99;73.59
13027;BME280;6580;42.680;23.324;2022-12-18T10:38:22;96570.22;;;7.91;73.15
13027;BME280;6580;42.680;23.324;2022-12-18T10:40:53;96562.63;;;7.74;73.60
13027;BME280;6580;42.680;23.324;2022-12-18T10:43:23;96557.50;;;7.84;75.06
13027;BME280;6580;42.680;23.324;2022-12-18T10:46:14;96562.63;;;7.62;75.32
13027;BME280;6580;42.680;23.324;2022-12-18T10:48:54;96562.41;;;7.52;74.89
13027;BME280;6580;42.680;23.324;2022-12-18T10:51:35;96557.50;;;7.84;75.21
13027;BME280;6580;42.680;23.324;2022-12-18T10:54:13;96558.72;;;8.03;74.10
13027;BME280;6580;42.680;23.324;2022-12-18T10:56:42;96540.59;;;7.97;72.43
13027;BME280;6580;42.680;23.324;2022-12-18T10:59:12;96560.03;;;7.85;73.66
13027;BME280;6580;42.680;23.324;2022-12-18T11:01:50;96559.44;;;7.69;73.70
13027;BME280;6580;42.680;23.324;2022-12-18T11:04:20;96550.22;;;7.62;74.99
13027;BME280;6580;42.680;23.324;2022-12-18T11:06:56;96552.88;;;7.12;76.17
13027;BME280;6580;42.680;23.324;2022-12-18T11:09:27;96553.97;;;7.22;75.68
13027;BME280;6580;42.680;23.324;2022-12-18T11:11:56;96549.78;;;7.68;74.00
13027;BME280;6580;42.680;23.324;2022-12-18T11:14:29;96552.22;;;7.71;70.86
13027;BME280;6580;42.680;23.324;2022-12-18T11:16:58;96567.91;;;7.74;69.32
13027;BME280;6580;42.680;23.324;2022-12-18T11:19:32;96562.69;;;7.85;69.21
13027;BME280;6580;42.680;23.324;2022-12-18T11:22:01;96565.03;;;7.90;70.91
13027;BME280;6580;42.680;23.324;2022-12-18T11:24:33;96566.13;;;8.10;70.01
13027;BME280;6580;42.680;23.324;2022-12-18T11:27:03;96561.34;;;8.28;68.68
13027;BME280;6580;42.680;23.324;2022-12-18T11:29:33;96561.47;;;8.26;68.47
13027;BME280;6580;42.680;23.324;2022-12-18T11:32:27;96560.94;;;8.21;68.59
13027;BME280;6580;42.680;23.324;2022-12-18T11:35:03;96556.03;;;8.15;69.21
13027;BME280;6580;42.680;23.324;2022-12-18T11:37:31;96553.72;;;8.11;69.16
13027;BME280;6580;42.680;23.324;2022-12-18T11:40:09;96559.94;;;8.35;67.94
13027;BME280;6580;42.680;23.324;2022-12-18T11:42:45;96570.81;;;8.19;68.44
13027;BME280;6580;42.680;23.324;2022-12-18T11:45:25;96561.97;;;8.19;69.49
13027;BME280;6580;42.680;23.324;2022-12-18T11:47:57;96576.66;;;8.12;70.03
13027;BME280;6580;42.680;23.324;2022-12-18T11:50:33;96557.84;;;8.15;67.96
13027;BME280;6580;42.680;23.324;2022-12-18T11:53:11;96568.28;;;8.18;67.25
13027;BME280;6580;42.680;23.324;2022-12-18T11:55:49;96572.31;;;7.99;67.46
13027;BME280;6580;42.680;23.324;2022-12-18T11:58:31;96563.69;;;8.20;68.25
13027;BME280;6580;42.680;23.324;2022-12-18T12:01:11;96557.97;;;8.01;67.48
13027;BME280;6580;42.680;23.324;2022-12-18T12:04:05;96552.75;;;7.76;68.18
13027;BME280;6580;42.680;23.324;2022-12-18T12:06:45;96546.47;;;7.90;68.99
13027;BME280;6580;42.680;23.324;2022-12-18T12:09:20;96563.81;;;8.18;67.45
13027;BME280;6580;42.680;23.324;2022-12-18T12:12:10;96553.19;;;8.18;68.70
13027;BME280;6580;42.680;23.324;2022-12-18T12:14:49;96556.03;;;8.15;69.10
13027;BME280;6580;42.680;23.324;2022-12-18T12:17:29;96552.13;;;8.21;70.03
13027;BME280;6580;42.680;23.324;2022-12-18T12:22:55;96564.84;;;7.80;70.43
13027;BME280;6580;42.680;23.324;2022-12-18T12:25:43;96563.53;;;7.98;69.93
13027;BME280;6580;42.680;23.324;2022-12-18T12:28:34;96566.00;;;7.76;71.08
13027;BME280;6580;42.680;23.324;2022-12-18T12:31:09;96566.28;;;7.84;71.61
13027;BME280;6580;42.680;23.324;2022-12-18T12:33:51;96566.63;;;7.80;70.13
13027;BME280;6580;42.680;23.324;2022-12-18T12:36:26;96574.78;;;7.89;70.13
13027;BME280;6580;42.680;23.324;2022-12-18T12:39:02;96574.25;;;7.84;70.96
13027;BME280;6580;42.680;23.324;2022-12-18T12:41:31;96572.22;;;8.00;72.25
13027;BME280;6580;42.680;23.324;2022-12-18T12:44:23;96563.38;;;8.12;70.32
13027;BME280;6580;42.680;23.324;2022-12-18T12:46:57;96552.38;;;8.18;69.99
13027;BME280;6580;42.680;23.324;2022-12-18T12:49:32;96564.44;;;8.22;71.54
13027;BME280;6580;42.680;23.324;2022-12-18T12:52:06;96556.59;;;8.44;69.88
13027;BME280;6580;42.680;23.324;2022-12-18T12:54:34;96571.16;;;8.38;70.05
13027;BME280;6580;42.680;23.324;2022-12-18T12:57:06;96563.81;;;8.18;69.13
13027;BME280;6580;42.680;23.324;2022-12-18T12:59:42;96577.44;;;7.89;71.29
13027;BME280;6580;42.680;23.324;2022-12-18T13:02:19;96564.91;;;7.91;71.34
13027;BME280;6580;42.680;23.324;2022-12-18T13:04:57;96580.66;;;8.30;70.67
13027;BME280;6580;42.680;23.324;2022-12-18T13:07:28;96586.75;;;8.43;69.15
13027;BME280;6580;42.680;23.324;2022-12-18T13:10:31;96577.56;;;8.36;69.03
13027;BME280;6580;42.680;23.324;2022-12-18T13:12:59;96594.75;;;8.30;70.09
13027;BME280;6580;42.680;23.324;2022-12-18T13:15:32;96600.31;;;8.15;70.81
13027;BME280;6580;42.680;23.324;2022-12-18T13:18:21;96606.03;;;8.09;69.24
13027;BME280;6580;42.680;23.324;2022-12-18T13:20:50;96588.25;;;7.86;69.80
13027;BME280;6580;42.680;23.324;2022-12-18T13:23:31;96600.00;;;8.07;70.72
13027;BME280;6580;42.680;23.324;2022-12-18T13:26:31;96605.84;;;8.00;70.05
13027;BME280;6580;42.680;23.324;2022-12-18T13:28:59;96610.59;;;8.07;69.65